Time;durP1;ratioP1;P1;durP2;ratioP2;P2;SDS_P1;SDS_P2;PMS_P1;PMS_P2;Temp;Humidity;BMP_temperature;BMP_pressure;BME280_temperature;BME280_humidity;BME280_pressure;Samples;Min_cycle;Max_cycle;Signal;HPM_P1;HPM_P2
2022/10/11 00:02:44;;;;;;;16.87;7.17;;;13.10;7.20;;;;;;5084192;28;20408;-86
2022/10/11 00:11:56;;;;;;;23.30;8.77;;;12.90;10.40;;;;;;5086959;28;20891;-85
2022/10/11 00:17:44;;;;;;;19.67;7.80;;;12.80;10.40;;;;;;5086180;28;20474;-85
2022/10/11 00:21:02;;;;;;;33.83;7.27;;;12.70;9.10;;;;;;5074366;28;20880;-86
2022/10/11 00:24:02;;;;;;;18.87;8.10;;;12.70;9.90;;;;;;5073284;28;20179;-86
2022/10/11 00:29:50;;;;;;;26.70;7.53;;;12.60;9.90;;;;;;5080582;28;20446;-85
2022/10/11 00:32:27;;;;;;;33.40;7.80;;;12.40;10.20;;;;;;5082149;28;20890;-85
2022/10/11 00:38:33;;;;;;;26.07;9.23;;;12.40;13.70;;;;;;5083126;28;20490;-86
2022/10/11 00:47:43;;;;;;;23.43;9.20;;;12.50;33.00;;;;;;5079274;28;20428;-82
2022/10/11 00:50:56;;;;;;;26.97;10.53;;;12.60;44.10;;;;;;5078866;28;20894;-81
2022/10/11 00:53:29;;;;;;;21.33;11.13;;;12.70;44.30;;;;;;5087541;28;20187;-81
2022/10/11 01:06:02;;;;;;;39.67;12.93;;;12.80;44.40;;;;;;5075130;28;20449;-81
2022/10/11 01:12:28;;;;;;;18.77;9.20;;;12.80;44.50;;;;;;5072712;28;21001;-81
2022/10/11 01:18:37;;;;;;;19.63;9.50;;;12.60;27.30;;;;;;5084352;28;20526;-85
2022/10/11 01:21:08;;;;;;;33.60;8.87;;;12.50;24.50;;;;;;5085981;28;21093;-85
2022/10/11 01:24:26;;;;;;;18.97;8.73;;;12.50;23.90;;;;;;5084525;28;20440;-86
2022/10/11 01:33:42;;;;;;;9.90;6.40;;;12.30;19.30;;;;;;5078885;28;20469;-81
2022/10/11 01:36:36;;;;;;;14.30;5.60;;;12.20;18.00;;;;;;5079336;28;20807;-81
2022/10/11 01:39:07;;;;;;;9.53;5.93;;;12.10;17.60;;;;;;5092917;28;20477;-81
2022/10/11 01:42:14;;;;;;;11.63;4.63;;;12.10;16.20;;;;;;5095741;28;20876;-81
2022/10/11 01:48:08;;;;;;;24.87;5.00;;;12.00;14.80;;;;;;5084891;28;20914;-80
2022/10/11 01:51:02;;;;;;;5.40;3.90;;;11.90;13.80;;;;;;5080956;28;20435;-81
2022/10/11 01:54:08;;;;;;;15.43;4.13;;;11.90;16.00;;;;;;5081476;28;20507;-81
2022/10/11 01:56:58;;;;;;;7.20;3.37;;;11.80;13.10;;;;;;5088028;28;20413;-81
2022/10/11 02:06:45;;;;;;;3.77;3.10;;;11.60;13.70;;;;;;5076715;28;21093;-81
2022/10/11 02:16:50;;;;;;;11.23;3.13;;;11.50;10.70;;;;;;5084912;28;20440;-86
2022/10/11 02:20:02;;;;;;;9.63;2.93;;;11.40;11.90;;;;;;5076851;28;20494;-86
2022/10/11 02:22:39;;;;;;;10.67;2.70;;;11.30;10.60;;;;;;5082666;28;20436;-86
2022/10/11 02:25:27;;;;;;;18.50;2.70;;;11.20;9.20;;;;;;5079742;28;20436;-86
2022/10/11 02:31:16;;;;;;;9.73;2.70;;;11.10;8.50;;;;;;5081926;28;20813;-85
2022/10/11 02:34:16;;;;;;;21.13;3.37;;;11.00;8.70;;;;;;5096522;28;20480;-86
2022/10/11 02:37:10;;;;;;;19.10;2.90;;;11.00;8.20;;;;;;5089775;28;20428;-85
2022/10/11 02:46:34;;;;;;;7.07;2.10;;;10.70;1.10;;;;;;5091047;28;20450;-81
2022/10/11 02:49:05;;;;;;;11.67;2.43;;;10.70;1.00;;;;;;5075793;28;20474;-81
2022/10/11 02:51:57;;;;;;;13.10;2.80;;;10.60;1.00;;;;;;5077601;28;20421;-81
2022/10/11 02:54:33;;;;;;;11.33;2.70;;;10.60;1.00;;;;;;5079821;28;20425;-81
2022/10/11 03:00:20;;;;;;;14.20;2.37;;;10.40;1.00;;;;;;5087992;28;20420;-86
2022/10/11 03:03:32;;;;;;;25.07;2.60;;;10.40;1.00;;;;;;5080307;28;20432;-85
2022/10/11 03:09:19;;;;;;;9.90;2.07;;;10.30;1.00;;;;;;5095784;28;20395;-86
2022/10/11 03:12:26;;;;;;;15.20;2.77;;;10.20;1.00;;;;;;5084902;28;20436;-86
2022/10/11 03:14:57;;;;;;;8.53;2.30;;;10.20;1.00;;;;;;5074818;28;20178;-85
2022/10/11 03:17:23;;;;;;;12.20;2.60;;;10.10;1.00;;;;;;5087356;28;20455;-81
2022/10/11 03:23:12;;;;;;;29.63;2.80;;;10.00;1.00;;;;;;5074377;28;20436;-81
2022/10/11 03:26:26;;;;;;;14.70;2.50;;;10.00;1.00;;;;;;5080923;28;20425;-81
2022/10/11 03:29:26;;;;;;;25.67;2.23;;;10.00;1.00;;;;;;5076556;28;20417;-81
2022/10/11 03:32:26;;;;;;;13.90;2.07;;;9.90;1.00;;;;;;5093834;28;20420;-81
2022/10/11 03:38:18;;;;;;;8.60;1.77;;;9.90;1.00;;;;;;5074256;28;20994;-81
2022/10/11 03:40:56;;;;;;;8.60;1.70;;;9.80;1.00;;;;;;5094090;28;20459;-81
2022/10/11 03:43:56;;;;;;;10.83;1.70;;;9.80;1.00;;;;;;5084044;28;20515;-80
2022/10/11 03:46:56;;;;;;;5.80;1.90;;;9.80;1.00;;;;;;5086543;28;20393;-82
2022/10/11 03:49:56;;;;;;;16.97;2.27;;;9.80;1.00;;;;;;5079172;28;20511;-81
2022/10/11 03:52:27;;;;;;;8.03;1.93;;;9.80;1.00;;;;;;5085103;28;20408;-81
2022/10/11 03:55:26;;;;;;;17.30;2.30;;;9.80;1.00;;;;;;5076012;28;20493;-81
2022/10/11 03:58:03;;;;;;;15.50;1.97;;;9.70;1.00;;;;;;5072675;28;20449;-81
2022/10/11 04:04:26;;;;;;;11.83;2.07;;;9.70;1.00;;;;;;5079665;28;20407;-80
2022/10/11 04:07:09;;;;;;;12.93;1.90;;;9.60;1.00;;;;;;5083196;28;20393;-83
2022/10/11 04:09:56;;;;;;;15.70;2.80;;;9.60;1.00;;;;;;5075654;28;20417;-82
2022/10/11 04:12:38;;;;;;;7.73;1.87;;;9.50;1.00;;;;;;5080775;28;20428;-80
2022/10/11 04:15:12;;;;;;;11.07;2.23;;;9.50;1.00;;;;;;5089817;28;20428;-81
2022/10/11 04:17:56;;;;;;;9.00;1.87;;;9.50;1.00;;;;;;5088173;28;20446;-81
2022/10/11 04:20:56;;;;;;;5.50;1.93;;;9.40;1.00;;;;;;5083113;28;20448;-82
2022/10/11 04:23:26;;;;;;;10.67;2.10;;;9.40;1.00;;;;;;5083291;28;20504;-77
2022/10/11 04:26:26;;;;;;;7.80;1.70;;;9.40;1.00;;;;;;5078179;28;20425;-76
2022/10/11 04:29:20;;;;;;;10.00;1.60;;;9.30;1.00;;;;;;5082740;28;20412;-76
2022/10/11 04:31:51;;;;;;;11.23;2.17;;;9.30;1.00;;;;;;5074938;28;20785;-79
2022/10/11 04:34:38;;;;;;;7.50;1.93;;;9.30;1.00;;;;;;5093111;28;20798;-79
2022/10/11 04:37:26;;;;;;;24.67;1.50;;;9.20;1.00;;;;;;5082853;28;20529;-79
2022/10/11 04:39:57;;;;;;;16.80;1.90;;;9.20;1.00;;;;;;5077033;28;20553;-79
2022/10/11 04:42:26;;;;;;;11.43;2.10;;;9.10;1.00;;;;;;5087170;28;20884;-79
2022/10/11 04:45:26;;;;;;;4.47;1.40;;;9.00;1.00;;;;;;5086876;28;20416;-79
2022/10/11 04:47:57;;;;;;;8.63;1.87;;;9.00;1.00;;;;;;5094235;28;20779;-76
2022/10/11 04:50:33;;;;;;;15.03;1.90;;;9.00;1.00;;;;;;5076285;28;20463;-75
2022/10/11 04:53:02;;;;;;;12.83;2.07;;;9.00;1.00;;;;;;5080237;28;20423;-76
2022/10/11 04:55:59;;;;;;;18.57;2.33;;;8.90;1.00;;;;;;5082114;28;20499;-76
2022/10/11 04:58:28;;;;;;;10.00;2.00;;;8.90;1.00;;;;;;5073700;28;20455;-76
2022/10/11 05:01:00;;;;;;;18.10;2.00;;;8.90;1.00;;;;;;5087243;28;20845;-79
2022/10/11 05:03:56;;;;;;;10.70;1.60;;;8.90;1.00;;;;;;5089644;28;20435;-79
2022/10/11 05:06:56;;;;;;;15.80;1.93;;;8.80;1.00;;;;;;5077948;28;20427;-79
2022/10/11 05:09:26;;;;;;;11.10;2.20;;;8.80;1.00;;;;;;5085306;28;20499;-79
2022/10/11 05:11:57;;;;;;;14.63;2.17;;;8.70;1.00;;;;;;5077755;28;20430;-79
2022/10/11 05:14:57;;;;;;;10.20;2.00;;;8.70;1.00;;;;;;5084310;28;20475;-79
2022/10/11 05:17:27;;;;;;;13.23;1.80;;;8.60;1.00;;;;;;5086922;28;20458;-78
2022/10/11 05:20:26;;;;;;;13.53;2.00;;;8.60;1.00;;;;;;5089295;28;20435;-79
2022/10/11 05:23:13;;;;;;;13.83;1.80;;;8.60;1.00;;;;;;5080132;28;20464;-79
2022/10/11 05:25:39;;;;;;;19.03;1.93;;;8.50;1.00;;;;;;5089125;28;20416;-79
2022/10/11 05:28:14;;;;;;;10.00;2.27;;;8.50;1.00;;;;;;5093020;28;20420;-78
2022/10/11 05:30:57;;;;;;;15.53;2.40;;;8.40;1.00;;;;;;5079876;28;20646;-79
2022/10/11 05:33:27;;;;;;;11.60;1.90;;;8.40;1.00;;;;;;5086864;28;20416;-76
2022/10/11 05:36:09;;;;;;;10.60;2.00;;;8.40;1.00;;;;;;5083436;28;20408;-76
2022/10/11 05:38:45;;;;;;;16.97;1.80;;;8.30;1.00;;;;;;5089815;28;20493;-76
2022/10/11 05:41:28;;;;;;;10.97;2.27;;;8.30;1.00;;;;;;5083928;28;20840;-77
2022/10/11 05:43:57;;;;;;;12.70;2.20;;;8.30;1.00;;;;;;5094436;28;20420;-77
2022/10/11 05:46:27;;;;;;;15.27;2.20;;;8.30;1.00;;;;;;5086648;28;20930;-78
2022/10/11 05:48:57;;;;;;;13.60;1.80;;;8.30;1.00;;;;;;5078131;28;20924;-78
2022/10/11 05:51:44;;;;;;;15.73;1.67;;;8.30;1.00;;;;;;5081661;28;20780;-79
2022/10/11 05:57:33;;;;;;;17.10;2.80;;;8.30;1.00;;;;;;5075925;28;20496;-78
2022/10/11 06:00:36;;;;;;;29.63;3.53;;;8.30;1.00;;;;;;5076410;28;20485;-79
2022/10/11 06:03:26;;;;;;;14.77;2.43;;;8.30;1.00;;;;;;5078134;28;20482;-80
2022/10/11 06:06:01;;;;;;;26.10;2.97;;;8.30;1.00;;;;;;5089796;28;20408;-80
2022/10/11 06:09:20;;;;;;;10.03;2.30;;;8.30;1.00;;;;;;5085040;28;20449;-79
2022/10/11 06:11:57;;;;;;;11.60;2.20;;;8.40;1.00;;;;;;5079379;28;20428;-79
2022/10/11 06:14:27;;;;;;;27.27;2.97;;;8.40;1.00;;;;;;5097087;28;20792;-79
2022/10/11 06:16:57;;;;;;;11.30;2.33;;;8.40;1.00;;;;;;5088329;28;20907;-78
2022/10/11 06:19:27;;;;;;;13.70;2.77;;;8.40;1.00;;;;;;5075936;28;20436;-79
2022/10/11 06:22:26;;;;;;;17.23;3.60;;;8.40;1.00;;;;;;5078707;28;20449;-79
2022/10/11 06:24:57;;;;;;;16.73;2.90;;;8.50;1.00;;;;;;5076300;28;20911;-78
2022/10/11 06:27:27;;;;;;;15.23;2.17;;;8.50;1.00;;;;;;5078045;28;20796;-78
2022/10/11 06:29:57;;;;;;;11.33;2.10;;;8.50;1.00;;;;;;5075801;28;20470;-79
2022/10/11 06:32:27;;;;;;;10.80;2.60;;;8.50;1.00;;;;;;5075962;28;20413;-77
2022/10/11 06:34:53;;;;;;;10.30;2.47;;;8.60;1.00;;;;;;5092024;28;20444;-77
2022/10/11 06:40:57;;;;;;;20.30;2.90;;;8.60;1.00;;;;;;5075034;28;20205;-76
2022/10/11 06:43:26;;;;;;;14.20;2.97;;;8.70;1.00;;;;;;5075507;28;20991;-77
2022/10/11 06:45:58;;;;;;;11.70;3.40;;;8.70;1.00;;;;;;5093083;28;20491;-77
2022/10/11 06:48:27;;;;;;;9.37;2.93;;;8.70;1.00;;;;;;5078935;28;20430;-76
2022/10/11 06:50:58;;;;;;;20.97;2.50;;;8.80;1.00;;;;;;5081708;28;20424;-77
2022/10/11 06:53:27;;;;;;;8.57;2.43;;;8.80;1.00;;;;;;5079116;28;20483;-76
2022/10/11 06:56:12;;;;;;;9.40;2.20;;;8.90;1.00;;;;;;5079867;28;20425;-76
2022/10/11 06:58:39;;;;;;;16.63;3.07;;;8.90;1.00;;;;;;5088448;28;20950;-78
2022/10/11 07:01:26;;;;;;;13.67;2.60;;;8.90;1.00;;;;;;5081656;28;20466;-77
2022/10/11 07:03:58;;;;;;;8.10;2.27;;;9.00;1.00;;;;;;5081338;28;20511;-77
2022/10/11 07:10:03;;;;;;;14.50;2.13;;;9.20;1.00;;;;;;5088385;28;20399;-77
2022/10/11 07:12:43;;;;;;;10.27;2.10;;;9.40;1.00;;;;;;5085655;28;20789;-77
2022/10/11 07:15:40;;;;;;;12.00;1.80;;;9.40;1.00;;;;;;5079640;28;20494;-76
2022/10/11 07:18:56;;;;;;;15.40;2.07;;;9.50;1.00;;;;;;5087911;28;20551;-81
2022/10/11 07:21:44;;;;;;;8.07;1.70;;;9.70;1.00;;;;;;5086397;28;20420;-80
2022/10/11 07:24:10;;;;;;;11.80;2.07;;;9.80;1.00;;;;;;5078107;28;20436;-78
2022/10/11 07:27:20;;;;;;;13.47;1.83;;;9.90;1.00;;;;;;5091013;28;20404;-78
2022/10/11 07:29:46;;;;;;;10.17;1.50;;;10.00;1.00;;;;;;5089327;28;20255;-79
2022/10/11 07:32:17;;;;;;;14.30;2.03;;;10.10;1.00;;;;;;5082400;28;20452;-79
2022/10/11 07:34:44;;;;;;;15.47;1.77;;;10.30;1.00;;;;;;5079181;28;20190;-80
2022/10/11 07:37:56;;;;;;;6.33;1.40;;;10.30;1.00;;;;;;5075535;28;20460;-80
2022/10/11 07:41:04;;;;;;;8.53;1.97;;;10.40;1.00;;;;;;5075831;28;20416;-80
2022/10/11 07:43:33;;;;;;;7.20;1.70;;;10.60;1.00;;;;;;5089411;28;20407;-78
2022/10/11 07:46:20;;;;;;;10.33;1.60;;;10.60;1.00;;;;;;5077946;28;20421;-78
2022/10/11 07:48:57;;;;;;;15.10;1.73;;;10.80;1.00;;;;;;5074544;28;20425;-77
2022/10/11 07:51:33;;;;;;;11.03;2.03;;;10.90;1.00;;;;;;5074230;28;20954;-76
2022/10/11 07:54:44;;;;;;;11.30;2.03;;;10.90;1.00;;;;;;5077951;28;20442;-80
2022/10/11 08:00:41;;;;;;;9.90;1.90;;;11.20;1.00;;;;;;5080585;28;20408;-80
2022/10/11 08:03:08;;;;;;;9.40;2.10;;;11.40;1.00;;;;;;5091343;28;20414;-79
2022/10/11 08:08:59;;;;;;;16.17;2.33;;;11.50;1.00;;;;;;5079439;28;20397;-77
2022/10/11 08:11:36;;;;;;;13.40;2.67;;;11.50;1.00;;;;;;5088607;28;20878;-75
2022/10/11 08:14:10;;;;;;;9.10;2.63;;;11.60;1.00;;;;;;5087131;28;22152;-75
2022/10/11 08:16:39;;;;;;;5.67;1.70;;;11.70;1.00;;;;;;5078120;28;21005;-76
2022/10/11 08:19:21;;;;;;;11.17;2.00;;;11.70;1.00;;;;;;5089239;28;20472;-75
2022/10/11 08:22:03;;;;;;;9.10;1.80;;;11.80;1.00;;;;;;5084761;28;20408;-77
2022/10/11 08:24:36;;;;;;;8.40;2.30;;;11.90;1.00;;;;;;5082652;28;20926;-75
2022/10/11 08:27:02;;;;;;;11.30;1.50;;;12.00;1.00;;;;;;5086740;28;20966;-76
2022/10/11 08:29:28;;;;;;;9.47;2.00;;;12.00;1.00;;;;;;5089629;28;20412;-75
2022/10/11 08:32:14;;;;;;;11.33;2.30;;;12.10;1.00;;;;;;5080412;28;20205;-76
2022/10/11 08:34:57;;;;;;;10.33;2.17;;;12.20;1.00;;;;;;5081956;28;20413;-76
2022/10/11 08:37:44;;;;;;;10.80;1.97;;;12.30;1.00;;;;;;5075166;28;20783;-76
2022/10/11 08:40:15;;;;;;;12.30;2.00;;;12.40;1.00;;;;;;5077167;28;20429;-76
2022/10/11 08:42:46;;;;;;;9.77;1.80;;;12.50;1.00;;;;;;5086261;28;20409;-75
2022/10/11 08:45:50;;;;;;;12.83;2.20;;;12.60;1.00;;;;;;5076686;28;20458;-76
2022/10/11 08:48:35;;;;;;;10.47;2.13;;;12.60;1.00;;;;;;5075905;28;20463;-76
2022/10/11 08:51:13;;;;;;;7.93;1.70;;;12.70;1.00;;;;;;5075823;28;20920;-76
2022/10/11 08:53:56;;;;;;;20.40;2.07;;;12.70;1.00;;;;;;5073605;28;20444;-76
2022/10/11 08:56:56;;;;;;;10.43;1.63;;;12.80;1.00;;;;;;5076889;28;20922;-76
2022/10/11 08:59:40;;;;;;;16.63;2.20;;;12.90;1.00;;;;;;5074498;28;20425;-75
2022/10/11 09:02:33;;;;;;;9.77;1.87;;;13.00;1.00;;;;;;5091498;28;20407;-76
2022/10/11 09:05:04;;;;;;;10.10;1.63;;;13.00;1.00;;;;;;5073815;28;20405;-75
2022/10/11 09:07:51;;;;;;;13.27;2.40;;;13.10;1.00;;;;;;5073023;28;20413;-76
2022/10/11 09:10:53;;;;;;;22.33;1.80;;;13.10;1.00;;;;;;5074479;28;20421;-76
2022/10/11 09:13:40;;;;;;;15.03;2.17;;;13.20;1.00;;;;;;5072914;28;20432;-75
2022/10/11 09:16:33;;;;;;;9.03;2.00;;;13.20;1.00;;;;;;5076955;28;20458;-76
2022/10/11 09:19:26;;;;;;;12.57;1.73;;;13.20;1.00;;;;;;5079044;28;20467;-76
2022/10/11 09:22:26;;;;;;;9.43;1.37;;;13.30;1.00;;;;;;5073077;28;20429;-75
2022/10/11 09:25:16;;;;;;;7.70;1.67;;;13.30;1.00;;;;;;5077126;28;20437;-76
2022/10/11 09:28:01;;;;;;;10.00;1.70;;;13.30;1.00;;;;;;5083898;28;20853;-75
2022/10/11 09:30:27;;;;;;;7.90;1.37;;;13.40;1.00;;;;;;5074775;28;20459;-76
2022/10/11 09:33:14;;;;;;;11.63;2.37;;;13.40;1.00;;;;;;5085461;28;20591;-75
2022/10/11 09:35:51;;;;;;;9.53;1.67;;;13.40;1.00;;;;;;5084548;28;20413;-76
2022/10/11 09:38:42;;;;;;;9.90;1.53;;;13.40;1.00;;;;;;5078730;28;20452;-76
2022/10/11 09:41:26;;;;;;;13.67;2.50;;;13.40;1.00;;;;;;5078362;28;20939;-77
2022/10/11 09:44:06;;;;;;;8.80;1.47;;;13.60;1.00;;;;;;5078260;28;20398;-76
2022/10/11 09:46:56;;;;;;;4.30;1.17;;;13.60;1.00;;;;;;5073039;28;20392;-75
2022/10/11 09:49:56;;;;;;;13.80;2.07;;;13.70;1.00;;;;;;5072912;28;20425;-76
2022/10/11 09:53:08;;;;;;;5.37;1.40;;;13.80;1.00;;;;;;5055762;28;20529;-76
2022/10/11 09:56:11;;;;;;;11.00;1.63;;;13.90;1.00;;;;;;5073610;28;20420;-76
2022/10/11 09:58:39;;;;;;;7.00;1.63;;;14.00;1.00;;;;;;5073294;28;20892;-76
2022/10/11 10:01:28;;;;;;;8.23;1.67;;;14.10;1.00;;;;;;5074398;28;20432;-76
2022/10/11 10:04:18;;;;;;;9.93;1.50;;;14.20;1.00;;;;;;5074161;28;20433;-76
2022/10/11 10:06:45;;;;;;;8.53;1.40;;;14.30;1.00;;;;;;5068736;28;20418;-76
2022/10/11 10:09:29;;;;;;;8.07;2.20;;;14.30;1.00;;;;;;5059075;28;20476;-77
2022/10/11 10:11:56;;;;;;;11.10;1.90;;;14.30;1.00;;;;;;5071173;28;20445;-76
2022/10/11 10:14:26;;;;;;;8.07;1.70;;;14.40;1.00;;;;;;5074014;28;20850;-76
2022/10/11 10:17:00;;;;;;;7.60;1.80;;;14.50;1.00;;;;;;5057246;28;20479;-77
2022/10/11 10:19:28;;;;;;;6.07;1.50;;;14.50;1.00;;;;;;5064241;28;20448;-77
2022/10/11 10:21:55;;;;;;;7.97;1.50;;;14.50;1.00;;;;;;5064071;28;20456;-76
2022/10/11 10:24:57;;;;;;;12.30;2.13;;;14.60;1.00;;;;;;5071937;28;20459;-76
2022/10/11 10:27:33;;;;;;;8.70;1.60;;;14.60;1.00;;;;;;5069675;28;21041;-76
2022/10/11 10:30:20;;;;;;;20.67;2.10;;;14.70;1.00;;;;;;5078996;28;20407;-76
2022/10/11 10:32:55;;;;;;;5.87;1.67;;;14.70;1.00;;;;;;5079539;28;20899;-76
2022/10/11 10:36:14;;;;;;;9.00;2.20;;;14.80;1.00;;;;;;5085483;28;20430;-76
2022/10/11 10:38:50;;;;;;;10.70;1.93;;;14.80;1.00;;;;;;5082138;28;20467;-76
2022/10/11 10:41:21;;;;;;;13.73;1.63;;;14.90;1.00;;;;;;5078090;28;20417;-76
2022/10/11 10:43:56;;;;;;;3.03;1.40;;;15.00;1.00;;;;;;5089976;28;20383;-77
2022/10/11 10:46:36;;;;;;;7.60;1.60;;;15.10;1.00;;;;;;5077831;28;20812;-76
2022/10/11 10:49:26;;;;;;;14.47;1.80;;;15.30;1.00;;;;;;5091765;28;20469;-76
2022/10/11 10:52:06;;;;;;;15.47;1.40;;;15.40;1.00;;;;;;5079515;28;20443;-75
2022/10/11 10:55:03;;;;;;;7.23;1.80;;;15.50;1.00;;;;;;5087893;28;20479;-76
2022/10/11 10:57:54;;;;;;;9.60;1.83;;;15.60;1.00;;;;;;5086101;28;20818;-75
2022/10/11 11:00:23;;;;;;;13.03;2.17;;;15.70;1.00;;;;;;5077496;28;20726;-75
2022/10/11 11:03:08;;;;;;;7.83;1.77;;;15.80;1.00;;;;;;5074921;28;20424;-81
2022/10/11 11:06:26;;;;;;;8.43;1.40;;;15.90;1.00;;;;;;5078886;28;20454;-80
2022/10/11 11:08:55;;;;;;;7.50;1.70;;;16.00;1.00;;;;;;5089480;28;20390;-80
2022/10/11 11:11:57;;;;;;;6.90;1.37;;;16.10;1.00;;;;;;5081318;28;20408;-80
2022/10/11 11:14:35;;;;;;;13.50;2.03;;;16.20;1.00;;;;;;5074402;28;20430;-80
2022/10/11 11:20:47;;;;;;;8.17;1.70;;;16.10;1.00;;;;;;5084659;28;20445;-82
2022/10/11 11:23:37;;;;;;;6.43;1.50;;;16.10;1.00;;;;;;5080984;28;20444;-77
2022/10/11 11:26:18;;;;;;;10.00;2.17;;;16.10;1.00;;;;;;5078306;28;20491;-78
2022/10/11 11:29:06;;;;;;;8.53;1.60;;;16.10;1.00;;;;;;5083847;28;20824;-79
2022/10/11 11:32:23;;;;;;;11.90;1.90;;;16.10;1.00;;;;;;5082798;28;20412;-78
2022/10/11 11:35:13;;;;;;;9.03;1.63;;;16.10;1.00;;;;;;4977012;28;20768;-79
2022/10/11 11:37:47;;;;;;;9.00;1.43;;;16.20;1.00;;;;;;5011255;28;20456;-77
2022/10/11 11:40:38;;;;;;;5.53;1.77;;;16.20;1.00;;;;;;5005413;28;20429;-77
2022/10/11 11:43:26;;;;;;;5.27;1.23;;;16.30;1.00;;;;;;4998673;28;20527;-78
2022/10/11 11:46:44;;;;;;;3.33;1.50;;;16.40;1.00;;;;;;5012602;28;20409;-77
2022/10/11 11:52:56;;;;;;;6.67;2.00;;;16.40;1.00;;;;;;5009918;28;20422;-77
2022/10/11 11:55:32;;;;;;;9.23;2.03;;;16.50;1.00;;;;;;5003547;28;20926;-77
2022/10/11 11:58:51;;;;;;;4.90;1.57;;;16.60;1.00;;;;;;5010205;28;20430;-77
2022/10/11 12:01:34;;;;;;;12.00;1.63;;;16.70;1.00;;;;;;5012225;28;20418;-77
2022/10/11 12:04:11;;;;;;;7.57;1.63;;;16.80;1.00;;;;;;5012070;28;20421;-77
2022/10/11 12:06:59;;;;;;;19.80;7.13;;;17.00;1.00;;;;;;5012487;28;20983;-77
2022/10/11 12:09:26;;;;;;;5.43;1.57;;;17.00;1.00;;;;;;5019184;28;20399;-77
2022/10/11 12:15:23;;;;;;;5.80;1.40;;;17.10;1.00;;;;;;5079959;28;20432;-76
2022/10/11 12:18:15;;;;;;;6.50;1.63;;;17.00;1.00;;;;;;5080257;28;20755;-77
2022/10/11 12:21:04;;;;;;;4.00;1.40;;;17.10;1.00;;;;;;5079187;28;20437;-77
2022/10/11 12:23:52;;;;;;;17.37;2.10;;;17.10;1.00;;;;;;5083248;28;20512;-77
2022/10/11 12:26:27;;;;;;;15.10;4.23;;;17.20;1.00;;;;;;5073534;28;20389;-77
2022/10/11 12:29:20;;;;;;;7.97;1.83;;;17.30;1.00;;;;;;5075558;28;20433;-78
2022/10/11 12:38:38;;;;;;;4.30;1.03;;;17.60;1.00;;;;;;5092290;28;20454;-79
2022/10/11 12:41:23;;;;;;;6.83;1.30;;;17.50;1.00;;;;;;5076544;28;20491;-79
2022/10/11 12:48:02;;;;;;;7.40;1.67;;;17.50;1.00;;;;;;5083812;28;20757;-80
2022/10/11 12:51:05;;;;;;;5.40;1.50;;;17.50;1.00;;;;;;5074671;28;20459;-80
2022/10/11 12:53:58;;;;;;;8.47;1.20;;;17.60;1.00;;;;;;5079698;28;20421;-79
2022/10/11 12:56:56;;;;;;;9.00;1.47;;;17.60;1.00;;;;;;5074085;28;20402;-79
2022/10/11 13:03:20;;;;;;;3.53;1.70;;;17.60;1.00;;;;;;5083094;28;20466;-80
2022/10/11 13:06:17;;;;;;;5.60;1.37;;;17.60;1.00;;;;;;5026229;28;20440;-79
2022/10/11 13:08:47;;;;;;;9.47;1.40;;;17.60;1.00;;;;;;5008783;28;20425;-79
2022/10/11 13:11:44;;;;;;;5.53;1.43;;;17.60;1.00;;;;;;5029755;28;20516;-80
2022/10/11 13:18:21;;;;;;;5.70;1.43;;;17.60;1.00;;;;;;5015565;28;20458;-79
2022/10/11 13:20:51;;;;;;;3.30;0.90;;;17.60;1.00;;;;;;5024187;28;20449;-79
2022/10/11 13:26:38;;;;;;;4.13;1.30;;;17.70;1.00;;;;;;5026418;28;20482;-79
2022/10/11 13:33:02;;;;;;;9.37;1.43;;;17.60;1.00;;;;;;5030723;28;20903;-79
2022/10/11 13:36:08;;;;;;;8.03;1.20;;;17.70;1.00;;;;;;5016791;28;20428;-80
2022/10/11 13:39:03;;;;;;;4.47;1.23;;;17.60;1.00;;;;;;5031813;28;20443;-77
2022/10/11 13:41:34;;;;;;;6.90;1.30;;;17.70;1.00;;;;;;5017330;28;20937;-77
2022/10/11 13:44:09;;;;;;;5.43;1.30;;;17.80;1.00;;;;;;5093632;28;20385;-77
2022/10/11 13:46:45;;;;;;;4.07;1.07;;;17.80;1.00;;;;;;5080255;28;20414;-77
2022/10/11 13:52:33;;;;;;;7.03;1.03;;;18.00;1.00;;;;;;5076949;28;20414;-75
2022/10/11 13:54:59;;;;;;;4.37;1.13;;;18.00;1.00;;;;;;5083622;28;20411;-75
2022/10/11 13:57:47;;;;;;;8.57;1.00;;;18.00;1.00;;;;;;5083954;28;20484;-75
2022/10/11 14:00:18;;;;;;;4.40;1.30;;;18.10;1.00;;;;;;5086975;28;20864;-74
2022/10/11 14:02:56;;;;;;;3.07;1.10;;;18.20;1.00;;;;;;5094662;28;20416;-74
2022/10/11 14:05:26;;;;;;;5.60;1.33;;;18.10;1.00;;;;;;5091520;28;20854;-74
2022/10/11 14:12:02;;;;;;;4.47;1.23;;;18.30;1.00;;;;;;5082819;28;20386;-77
2022/10/11 14:14:31;;;;;;;6.30;1.50;;;18.20;1.00;;;;;;5076052;28;20403;-76
2022/10/11 14:17:30;;;;;;;7.73;1.80;;;18.10;1.00;;;;;;5093743;28;20462;-76
2022/10/11 14:20:15;;;;;;;5.37;1.30;;;18.10;1.00;;;;;;5078014;28;20882;-76
2022/10/11 14:23:14;;;;;;;2.83;0.97;;;18.20;1.00;;;;;;5079577;28;20748;-77
2022/10/11 14:25:51;;;;;;;5.00;1.40;;;18.30;1.00;;;;;;5089058;28;20407;-76
2022/10/11 14:29:02;;;;;;;5.50;1.20;;;18.30;1.00;;;;;;5076026;28;20418;-79
2022/10/11 14:34:51;;;;;;;6.80;1.43;;;18.40;1.00;;;;;;5084763;28;20402;-78
2022/10/11 14:44:51;;;;;;;4.33;2.40;;;18.40;1.00;;;;;;5080812;28;20475;-79
2022/10/11 14:47:44;;;;;;;7.63;2.70;;;18.40;1.00;;;;;;5088922;28;20924;-78
2022/10/11 14:53:32;;;;;;;5.03;2.17;;;18.20;1.00;;;;;;5089880;28;20769;-80
2022/10/11 14:59:24;;;;;;;7.13;1.77;;;18.30;1.00;;;;;;5086774;28;20221;-80
2022/10/11 15:02:20;;;;;;;12.30;1.60;;;18.40;1.00;;;;;;5079777;28;20431;-80
2022/10/11 15:04:57;;;;;;;3.33;1.17;;;18.40;1.00;;;;;;5073648;28;20505;-79
2022/10/11 15:07:56;;;;;;;5.13;1.07;;;18.40;1.00;;;;;;5075113;28;20440;-78
2022/10/11 15:10:33;;;;;;;5.00;1.10;;;18.40;1.00;;;;;;5075456;28;20498;-81
2022/10/11 15:16:21;;;;;;;5.40;1.20;;;18.40;1.00;;;;;;5088751;28;20369;-79
2022/10/11 15:18:51;;;;;;;4.37;1.40;;;18.40;1.00;;;;;;5074807;28;20475;-78
2022/10/11 15:22:04;;;;;;;4.33;1.30;;;18.30;1.00;;;;;;5075366;28;20474;-78
2022/10/11 15:24:39;;;;;;;6.60;1.27;;;18.30;1.00;;;;;;5078168;28;20432;-76
2022/10/11 15:27:24;;;;;;;4.70;1.30;;;18.40;1.00;;;;;;5095251;28;20845;-77
2022/10/11 15:30:32;;;;;;;8.20;1.00;;;18.60;1.00;;;;;;5079760;28;20423;-77
2022/10/11 15:33:03;;;;;;;7.27;1.00;;;19.10;1.00;;;;;;5082129;28;20424;-75
2022/10/11 15:35:51;;;;;;;4.40;1.37;;;19.40;1.00;;;;;;5085966;28;20471;-76
2022/10/11 15:38:22;;;;;;;9.03;1.93;;;19.40;1.00;;;;;;5081644;28;20434;-75
2022/10/11 15:41:15;;;;;;;2.70;1.00;;;19.40;1.00;;;;;;5086304;28;20979;-76
2022/10/11 15:43:44;;;;;;;2.40;1.10;;;19.40;1.00;;;;;;5080227;28;20495;-76
2022/10/11 15:46:40;;;;;;;5.30;1.23;;;19.50;1.00;;;;;;5088572;28;20492;-76
2022/10/11 15:49:26;;;;;;;6.83;1.13;;;19.70;1.00;;;;;;5082685;28;20420;-76
2022/10/11 15:51:52;;;;;;;10.20;1.10;;;19.90;1.00;;;;;;5087960;28;21051;-76
2022/10/11 15:55:02;;;;;;;8.53;1.30;;;19.80;1.00;;;;;;5081440;28;20448;-78
2022/10/11 15:58:14;;;;;;;6.23;1.30;;;19.50;1.00;;;;;;5087898;28;20180;-78
2022/10/11 16:01:20;;;;;;;4.13;1.40;;;19.20;1.00;;;;;;5075900;28;20427;-78
2022/10/11 16:04:03;;;;;;;6.13;1.20;;;18.80;1.00;;;;;;5078698;28;20422;-79
2022/10/11 16:07:02;;;;;;;6.77;2.07;;;18.40;1.00;;;;;;5077974;28;20406;-79
2022/10/11 16:13:03;;;;;;;10.10;1.00;;;17.60;1.00;;;;;;5086390;28;20983;-79
2022/10/11 16:15:50;;;;;;;3.47;1.10;;;17.10;1.00;;;;;;5081154;28;20789;-78
2022/10/11 16:18:45;;;;;;;4.33;1.20;;;16.80;1.00;;;;;;5077050;28;20852;-78
2022/10/11 16:21:56;;;;;;;8.63;1.40;;;16.50;1.00;;;;;;5084000;28;20412;-78
2022/10/11 16:27:44;;;;;;;5.33;1.67;;;15.80;1.00;;;;;;5076246;28;20452;-77
2022/10/11 16:34:26;;;;;;;3.37;1.33;;;15.20;1.00;;;;;;5089991;28;20403;-77
2022/10/11 16:37:26;;;;;;;5.90;1.10;;;14.90;1.00;;;;;;5074848;28;20420;-77
2022/10/11 16:40:19;;;;;;;6.17;1.40;;;14.60;1.00;;;;;;5086261;28;20405;-77
2022/10/11 16:49:28;;;;;;;9.93;1.93;;;13.80;1.00;;;;;;5073519;28;20355;-77
2022/10/11 16:55:16;;;;;;;6.43;1.50;;;13.40;1.00;;;;;;5086750;28;20181;-78
2022/10/11 16:58:15;;;;;;;7.20;2.20;;;13.20;1.00;;;;;;5080104;28;20448;-79
2022/10/11 17:04:33;;;;;;;17.80;5.40;;;12.80;1.00;;;;;;5084081;28;20402;-79
2022/10/11 17:07:04;;;;;;;29.07;6.23;;;12.60;1.00;;;;;;5083572;28;21076;-78
2022/10/11 17:09:47;;;;;;;27.70;5.87;;;12.40;1.00;;;;;;5077211;28;20417;-76
2022/10/11 17:12:28;;;;;;;14.73;3.67;;;12.30;1.00;;;;;;5080212;28;21844;-77
2022/10/11 17:15:05;;;;;;;7.67;2.93;;;12.10;1.00;;;;;;5083982;28;20420;-76
2022/10/11 17:18:02;;;;;;;10.83;2.60;;;12.00;1.00;;;;;;5081744;28;20409;-76
2022/10/11 17:20:28;;;;;;;15.00;2.67;;;11.90;1.00;;;;;;5075887;28;20975;-76
2022/10/11 17:23:09;;;;;;;4.37;2.00;;;11.70;1.00;;;;;;5092185;28;20504;-74
2022/10/11 17:25:43;;;;;;;8.43;1.83;;;11.60;1.00;;;;;;5081655;28;20702;-74
2022/10/11 17:28:09;;;;;;;8.50;2.10;;;11.50;1.00;;;;;;5085830;28;20431;-74
2022/10/11 17:31:06;;;;;;;8.30;1.93;;;11.40;1.00;;;;;;5076265;28;20433;-75
2022/10/11 17:36:53;;;;;;;20.07;2.43;;;11.10;1.00;;;;;;5029223;28;20939;-76
2022/10/11 17:39:22;;;;;;;9.03;1.80;;;11.00;1.00;;;;;;5039265;28;20450;-74